sensor_id;sensor_type;location;lat;lon;timestamp;P1;durP1;ratioP1;P2;durP2;ratioP2
52210;SDS011;38179;52.756;6.906;2022-11-25T00:01:04;21.58;;;10.55;;
52210;SDS011;38179;52.756;6.906;2022-11-25T00:03:32;17.80;;;10.85;;
52210;SDS011;38179;52.756;6.906;2022-11-25T00:08:53;16.13;;;10.43;;
52210;SDS011;38179;52.756;6.906;2022-11-25T00:11:23;16.20;;;9.98;;
52210;SDS011;38179;52.756;6.906;2022-11-25T00:13:49;19.15;;;10.48;;
52210;SDS011;38179;52.756;6.906;2022-11-25T00:16:17;26.35;;;10.63;;
52210;SDS011;38179;52.756;6.906;2022-11-25T00:18:48;18.27;;;10.20;;
52210;SDS011;38179;52.756;6.906;2022-11-25T00:21:16;20.63;;;10.77;;
52210;SDS011;38179;52.756;6.906;2022-11-25T00:23:57;19.23;;;9.95;;
52210;SDS011;38179;52.756;6.906;2022-11-25T00:26:25;17.10;;;10.00;;
52210;SDS011;38179;52.756;6.906;2022-11-25T00:28:52;16.63;;;10.13;;
52210;SDS011;38179;52.756;6.906;2022-11-25T00:31:19;17.52;;;10.40;;
52210;SDS011;38179;52.756;6.906;2022-11-25T00:33:47;21.85;;;10.98;;
52210;SDS011;38179;52.756;6.906;2022-11-25T00:36:15;17.60;;;9.95;;
52210;SDS011;38179;52.756;6.906;2022-11-25T00:38:44;17.90;;;10.00;;
52210;SDS011;38179;52.756;6.906;2022-11-25T00:41:11;21.30;;;10.85;;
52210;SDS011;38179;52.756;6.906;2022-11-25T00:43:56;19.70;;;10.38;;
52210;SDS011;38179;52.756;6.906;2022-11-25T00:46:41;21.95;;;10.40;;
52210;SDS011;38179;52.756;6.906;2022-11-25T00:49:07;15.90;;;10.00;;
52210;SDS011;38179;52.756;6.906;2022-11-25T00:51:33;14.98;;;10.18;;
52210;SDS011;38179;52.756;6.906;2022-11-25T00:53:59;21.48;;;10.50;;
52210;SDS011;38179;52.756;6.906;2022-11-25T00:56:25;18.35;;;10.35;;
52210;SDS011;38179;52.756;6.906;2022-11-25T00:58:51;17.95;;;10.38;;
52210;SDS011;38179;52.756;6.906;2022-11-25T01:01:18;20.13;;;10.52;;
52210;SDS011;38179;52.756;6.906;2022-11-25T01:03:44;15.80;;;10.18;;
52210;SDS011;38179;52.756;6.906;2022-11-25T01:08:39;18.02;;;10.35;;
52210;SDS011;38179;52.756;6.906;2022-11-25T01:11:06;18.05;;;9.82;;
52210;SDS011;38179;52.756;6.906;2022-11-25T01:13:35;17.42;;;10.38;;
52210;SDS011;38179;52.756;6.906;2022-11-25T01:16:04;22.05;;;10.48;;
52210;SDS011;38179;52.756;6.906;2022-11-25T01:18:31;16.65;;;10.50;;
52210;SDS011;38179;52.756;6.906;2022-11-25T01:21:32;19.65;;;10.50;;
52210;SDS011;38179;52.756;6.906;2022-11-25T01:23:54;17.48;;;10.18;;
52210;SDS011;38179;52.756;6.906;2022-11-25T01:26:21;17.65;;;10.10;;
52210;SDS011;38179;52.756;6.906;2022-11-25T01:28:52;19.83;;;9.93;;
52210;SDS011;38179;52.756;6.906;2022-11-25T01:31:20;19.98;;;10.35;;
52210;SDS011;38179;52.756;6.906;2022-11-25T01:33:51;15.95;;;10.13;;
52210;SDS011;38179;52.756;6.906;2022-11-25T01:36:18;20.63;;;10.57;;
52210;SDS011;38179;52.756;6.906;2022-11-25T01:38:44;18.05;;;10.80;;
52210;SDS011;38179;52.756;6.906;2022-11-25T01:41:14;23.67;;;10.20;;
52210;SDS011;38179;52.756;6.906;2022-11-25T01:43:40;19.42;;;10.38;;
52210;SDS011;38179;52.756;6.906;2022-11-25T01:46:23;16.92;;;10.10;;
52210;SDS011;38179;52.756;6.906;2022-11-25T01:48:55;21.95;;;10.00;;
52210;SDS011;38179;52.756;6.906;2022-11-25T01:51:27;18.80;;;10.40;;
52210;SDS011;38179;52.756;6.906;2022-11-25T01:54:01;17.33;;;10.50;;
52210;SDS011;38179;52.756;6.906;2022-11-25T01:58:57;18.17;;;10.05;;
52210;SDS011;38179;52.756;6.906;2022-11-25T02:01:23;19.33;;;10.20;;
52210;SDS011;38179;52.756;6.906;2022-11-25T02:03:50;14.70;;;9.48;;
52210;SDS011;38179;52.756;6.906;2022-11-25T02:06:37;22.15;;;11.07;;
52210;SDS011;38179;52.756;6.906;2022-11-25T02:11:35;18.38;;;10.38;;
52210;SDS011;38179;52.756;6.906;2022-11-25T02:14:04;23.17;;;10.23;;
52210;SDS011;38179;52.756;6.906;2022-11-25T02:16:30;14.18;;;10.43;;
52210;SDS011;38179;52.756;6.906;2022-11-25T02:18:56;18.35;;;11.13;;
52210;SDS011;38179;52.756;6.906;2022-11-25T02:21:25;21.50;;;10.43;;
52210;SDS011;38179;52.756;6.906;2022-11-25T02:26:28;20.08;;;10.15;;
52210;SDS011;38179;52.756;6.906;2022-11-25T02:28:55;19.90;;;10.90;;
52210;SDS011;38179;52.756;6.906;2022-11-25T02:31:22;27.92;;;10.98;;
52210;SDS011;38179;52.756;6.906;2022-11-25T02:33:48;16.83;;;10.77;;
52210;SDS011;38179;52.756;6.906;2022-11-25T02:36:15;17.40;;;10.45;;
52210;SDS011;38179;52.756;6.906;2022-11-25T02:38:48;19.67;;;11.00;;
52210;SDS011;38179;52.756;6.906;2022-11-25T02:41:29;19.15;;;10.40;;
52210;SDS011;38179;52.756;6.906;2022-11-25T02:44:01;20.77;;;10.88;;
52210;SDS011;38179;52.756;6.906;2022-11-25T02:46:28;17.75;;;10.68;;
52210;SDS011;38179;52.756;6.906;2022-11-25T02:48:55;18.63;;;10.45;;
52210;SDS011;38179;52.756;6.906;2022-11-25T02:51:22;18.15;;;10.35;;
52210;SDS011;38179;52.756;6.906;2022-11-25T02:53:50;19.90;;;11.13;;
52210;SDS011;38179;52.756;6.906;2022-11-25T02:56:17;18.55;;;10.57;;
52210;SDS011;38179;52.756;6.906;2022-11-25T02:58:45;21.45;;;10.82;;
52210;SDS011;38179;52.756;6.906;2022-11-25T03:01:10;21.30;;;10.75;;
52210;SDS011;38179;52.756;6.906;2022-11-25T03:03:37;18.85;;;11.15;;
52210;SDS011;38179;52.756;6.906;2022-11-25T03:06:04;20.55;;;10.55;;
52210;SDS011;38179;52.756;6.906;2022-11-25T03:08:30;20.20;;;10.38;;
52210;SDS011;38179;52.756;6.906;2022-11-25T03:10:56;19.85;;;10.38;;
52210;SDS011;38179;52.756;6.906;2022-11-25T03:13:22;25.35;;;11.25;;
52210;SDS011;38179;52.756;6.906;2022-11-25T03:15:47;15.45;;;11.13;;
52210;SDS011;38179;52.756;6.906;2022-11-25T03:18:13;20.73;;;11.15;;
52210;SDS011;38179;52.756;6.906;2022-11-25T03:20:39;19.15;;;11.20;;
52210;SDS011;38179;52.756;6.906;2022-11-25T03:23:05;20.20;;;11.25;;
52210;SDS011;38179;52.756;6.906;2022-11-25T03:25:32;19.20;;;11.13;;
52210;SDS011;38179;52.756;6.906;2022-11-25T03:27:59;18.52;;;11.05;;
52210;SDS011;38179;52.756;6.906;2022-11-25T03:30:26;16.13;;;10.88;;
52210;SDS011;38179;52.756;6.906;2022-11-25T03:32:53;22.83;;;11.40;;
52210;SDS011;38179;52.756;6.906;2022-11-25T03:35:19;22.35;;;10.90;;
52210;SDS011;38179;52.756;6.906;2022-11-25T03:37:45;19.20;;;10.70;;
52210;SDS011;38179;52.756;6.906;2022-11-25T03:40:12;24.67;;;10.93;;
52210;SDS011;38179;52.756;6.906;2022-11-25T03:42:39;18.52;;;11.20;;
52210;SDS011;38179;52.756;6.906;2022-11-25T03:45:05;17.35;;;11.15;;
52210;SDS011;38179;52.756;6.906;2022-11-25T03:47:32;15.52;;;10.63;;
52210;SDS011;38179;52.756;6.906;2022-11-25T03:49:58;15.68;;;11.20;;
52210;SDS011;38179;52.756;6.906;2022-11-25T03:52:24;19.50;;;11.05;;
52210;SDS011;38179;52.756;6.906;2022-11-25T03:54:50;20.70;;;11.20;;
52210;SDS011;38179;52.756;6.906;2022-11-25T03:57:16;21.63;;;11.30;;
52210;SDS011;38179;52.756;6.906;2022-11-25T03:59:42;20.63;;;10.80;;
52210;SDS011;38179;52.756;6.906;2022-11-25T04:02:08;19.10;;;11.55;;
52210;SDS011;38179;52.756;6.906;2022-11-25T04:04:34;20.20;;;11.45;;
52210;SDS011;38179;52.756;6.906;2022-11-25T04:07:00;22.83;;;11.00;;
52210;SDS011;38179;52.756;6.906;2022-11-25T04:09:26;18.40;;;11.43;;
52210;SDS011;38179;52.756;6.906;2022-11-25T04:11:52;20.52;;;11.65;;
52210;SDS011;38179;52.756;6.906;2022-11-25T04:14:36;20.77;;;11.05;;
52210;SDS011;38179;52.756;6.906;2022-11-25T04:17:02;22.00;;;11.85;;
52210;SDS011;38179;52.756;6.906;2022-11-25T04:19:27;18.45;;;11.60;;
52210;SDS011;38179;52.756;6.906;2022-11-25T04:21:53;21.38;;;11.18;;
52210;SDS011;38179;52.756;6.906;2022-11-25T04:24:20;19.05;;;10.93;;
52210;SDS011;38179;52.756;6.906;2022-11-25T04:26:46;19.35;;;11.07;;
52210;SDS011;38179;52.756;6.906;2022-11-25T04:29:11;22.88;;;11.15;;
52210;SDS011;38179;52.756;6.906;2022-11-25T04:31:37;23.55;;;11.43;;
52210;SDS011;38179;52.756;6.906;2022-11-25T04:34:03;21.25;;;11.63;;
52210;SDS011;38179;52.756;6.906;2022-11-25T04:36:29;27.20;;;11.75;;
52210;SDS011;38179;52.756;6.906;2022-11-25T04:38:55;24.65;;;11.65;;
52210;SDS011;38179;52.756;6.906;2022-11-25T04:41:21;19.17;;;11.75;;
52210;SDS011;38179;52.756;6.906;2022-11-25T04:43:47;20.98;;;10.57;;
52210;SDS011;38179;52.756;6.906;2022-11-25T04:46:15;23.35;;;11.23;;
52210;SDS011;38179;52.756;6.906;2022-11-25T04:48:43;17.17;;;11.00;;
52210;SDS011;38179;52.756;6.906;2022-11-25T04:51:09;17.60;;;11.38;;
52210;SDS011;38179;52.756;6.906;2022-11-25T04:53:35;23.95;;;11.98;;
52210;SDS011;38179;52.756;6.906;2022-11-25T04:56:01;20.75;;;10.68;;
52210;SDS011;38179;52.756;6.906;2022-11-25T04:58:27;19.13;;;11.00;;
52210;SDS011;38179;52.756;6.906;2022-11-25T05:01:11;19.35;;;11.50;;
52210;SDS011;38179;52.756;6.906;2022-11-25T05:03:37;19.45;;;11.23;;
52210;SDS011;38179;52.756;6.906;2022-11-25T05:06:06;17.92;;;11.15;;
52210;SDS011;38179;52.756;6.906;2022-11-25T05:08:33;24.98;;;12.13;;
52210;SDS011;38179;52.756;6.906;2022-11-25T05:10:59;18.55;;;11.30;;
52210;SDS011;38179;52.756;6.906;2022-11-25T05:13:25;21.88;;;11.18;;
52210;SDS011;38179;52.756;6.906;2022-11-25T05:15:51;23.00;;;11.45;;
52210;SDS011;38179;52.756;6.906;2022-11-25T05:18:17;23.20;;;12.23;;
52210;SDS011;38179;52.756;6.906;2022-11-25T05:20:43;20.60;;;11.55;;
52210;SDS011;38179;52.756;6.906;2022-11-25T05:23:09;19.13;;;11.27;;
52210;SDS011;38179;52.756;6.906;2022-11-25T05:25:35;22.08;;;11.98;;
52210;SDS011;38179;52.756;6.906;2022-11-25T05:28:01;19.33;;;12.32;;
52210;SDS011;38179;52.756;6.906;2022-11-25T05:30:28;23.52;;;12.52;;
52210;SDS011;38179;52.756;6.906;2022-11-25T05:32:53;18.20;;;11.45;;
52210;SDS011;38179;52.756;6.906;2022-11-25T05:35:19;23.00;;;11.88;;
52210;SDS011;38179;52.756;6.906;2022-11-25T05:37:46;21.45;;;11.73;;
52210;SDS011;38179;52.756;6.906;2022-11-25T05:40:12;25.85;;;12.70;;
52210;SDS011;38179;52.756;6.906;2022-11-25T05:42:38;24.02;;;12.48;;
52210;SDS011;38179;52.756;6.906;2022-11-25T05:45:04;16.75;;;11.57;;
52210;SDS011;38179;52.756;6.906;2022-11-25T05:47:31;18.05;;;12.10;;
52210;SDS011;38179;52.756;6.906;2022-11-25T05:49:57;24.25;;;12.88;;
52210;SDS011;38179;52.756;6.906;2022-11-25T05:52:23;19.17;;;13.00;;
52210;SDS011;38179;52.756;6.906;2022-11-25T05:54:49;20.70;;;12.60;;
52210;SDS011;38179;52.756;6.906;2022-11-25T05:57:15;20.17;;;13.20;;
52210;SDS011;38179;52.756;6.906;2022-11-25T05:59:41;21.63;;;12.68;;
52210;SDS011;38179;52.756;6.906;2022-11-25T06:02:07;23.98;;;13.85;;
52210;SDS011;38179;52.756;6.906;2022-11-25T06:04:32;24.48;;;13.73;;
52210;SDS011;38179;52.756;6.906;2022-11-25T06:06:58;25.88;;;13.75;;
52210;SDS011;38179;52.756;6.906;2022-11-25T06:09:24;22.20;;;13.65;;
52210;SDS011;38179;52.756;6.906;2022-11-25T06:11:50;20.10;;;13.10;;
52210;SDS011;38179;52.756;6.906;2022-11-25T06:14:16;24.00;;;13.73;;
52210;SDS011;38179;52.756;6.906;2022-11-25T06:16:42;22.02;;;14.15;;
52210;SDS011;38179;52.756;6.906;2022-11-25T06:19:08;23.15;;;12.98;;
52210;SDS011;38179;52.756;6.906;2022-11-25T06:21:35;23.15;;;13.75;;
52210;SDS011;38179;52.756;6.906;2022-11-25T06:24:01;29.27;;;14.30;;
52210;SDS011;38179;52.756;6.906;2022-11-25T06:26:27;23.85;;;14.55;;
52210;SDS011;38179;52.756;6.906;2022-11-25T06:28:55;27.98;;;15.32;;
52210;SDS011;38179;52.756;6.906;2022-11-25T06:31:22;21.83;;;14.00;;
52210;SDS011;38179;52.756;6.906;2022-11-25T06:33:49;25.42;;;15.15;;
52210;SDS011;38179;52.756;6.906;2022-11-25T06:36:16;23.75;;;15.15;;
52210;SDS011;38179;52.756;6.906;2022-11-25T06:38:48;26.65;;;15.50;;
52210;SDS011;38179;52.756;6.906;2022-11-25T06:41:15;24.45;;;14.30;;
52210;SDS011;38179;52.756;6.906;2022-11-25T06:43:42;22.17;;;14.90;;
52210;SDS011;38179;52.756;6.906;2022-11-25T06:46:17;23.38;;;14.88;;
52210;SDS011;38179;52.756;6.906;2022-11-25T06:48:44;25.92;;;15.02;;
52210;SDS011;38179;52.756;6.906;2022-11-25T06:51:11;25.08;;;14.82;;
52210;SDS011;38179;52.756;6.906;2022-11-25T06:53:39;28.33;;;14.73;;
52210;SDS011;38179;52.756;6.906;2022-11-25T06:56:14;23.95;;;14.80;;
52210;SDS011;38179;52.756;6.906;2022-11-25T06:58:44;24.25;;;14.20;;
52210;SDS011;38179;52.756;6.906;2022-11-25T07:03:39;22.92;;;14.40;;
52210;SDS011;38179;52.756;6.906;2022-11-25T07:06:06;24.85;;;14.10;;
52210;SDS011;38179;52.756;6.906;2022-11-25T07:08:33;26.42;;;14.27;;
52210;SDS011;38179;52.756;6.906;2022-11-25T07:11:03;24.05;;;13.85;;
52210;SDS011;38179;52.756;6.906;2022-11-25T07:13:30;19.73;;;13.13;;
52210;SDS011;38179;52.756;6.906;2022-11-25T07:15:59;21.80;;;14.10;;
52210;SDS011;38179;52.756;6.906;2022-11-25T07:18:34;20.45;;;12.85;;
52210;SDS011;38179;52.756;6.906;2022-11-25T07:21:05;18.67;;;13.77;;
52210;SDS011;38179;52.756;6.906;2022-11-25T07:23:37;18.83;;;13.20;;
52210;SDS011;38179;52.756;6.906;2022-11-25T07:26:06;24.38;;;12.65;;
52210;SDS011;38179;52.756;6.906;2022-11-25T07:28:36;19.38;;;13.25;;
52210;SDS011;38179;52.756;6.906;2022-11-25T07:31:03;19.90;;;13.82;;
52210;SDS011;38179;52.756;6.906;2022-11-25T07:33:33;19.42;;;12.90;;
52210;SDS011;38179;52.756;6.906;2022-11-25T07:36:06;15.95;;;12.30;;
52210;SDS011;38179;52.756;6.906;2022-11-25T07:38:33;19.52;;;12.48;;
52210;SDS011;38179;52.756;6.906;2022-11-25T07:41:10;21.58;;;12.23;;
52210;SDS011;38179;52.756;6.906;2022-11-25T07:43:39;18.48;;;12.32;;
52210;SDS011;38179;52.756;6.906;2022-11-25T07:46:09;23.45;;;12.52;;
52210;SDS011;38179;52.756;6.906;2022-11-25T07:48:42;19.52;;;12.20;;
52210;SDS011;38179;52.756;6.906;2022-11-25T07:51:46;19.02;;;12.52;;
52210;SDS011;38179;52.756;6.906;2022-11-25T07:54:14;19.17;;;12.20;;
52210;SDS011;38179;52.756;6.906;2022-11-25T07:56:41;23.15;;;12.35;;
52210;SDS011;38179;52.756;6.906;2022-11-25T07:59:09;19.02;;;12.25;;
52210;SDS011;38179;52.756;6.906;2022-11-25T08:04:05;15.30;;;11.45;;
52210;SDS011;38179;52.756;6.906;2022-11-25T08:06:35;19.55;;;12.13;;
52210;SDS011;38179;52.756;6.906;2022-11-25T08:09:03;16.88;;;11.55;;
52210;SDS011;38179;52.756;6.906;2022-11-25T08:11:31;15.48;;;11.63;;
52210;SDS011;38179;52.756;6.906;2022-11-25T08:13:57;18.92;;;11.98;;
52210;SDS011;38179;52.756;6.906;2022-11-25T08:16:24;19.63;;;11.90;;
52210;SDS011;38179;52.756;6.906;2022-11-25T08:18:55;18.48;;;11.48;;
52210;SDS011;38179;52.756;6.906;2022-11-25T08:21:22;20.05;;;11.93;;
52210;SDS011;38179;52.756;6.906;2022-11-25T08:23:48;18.92;;;12.15;;
52210;SDS011;38179;52.756;6.906;2022-11-25T08:26:26;21.10;;;11.70;;
52210;SDS011;38179;52.756;6.906;2022-11-25T08:29:02;17.73;;;11.25;;
52210;SDS011;38179;52.756;6.906;2022-11-25T08:31:29;16.17;;;12.00;;
52210;SDS011;38179;52.756;6.906;2022-11-25T08:33:57;15.32;;;11.52;;
52210;SDS011;38179;52.756;6.906;2022-11-25T08:36:24;15.02;;;11.38;;
52210;SDS011;38179;52.756;6.906;2022-11-25T08:38:53;17.42;;;11.88;;
52210;SDS011;38179;52.756;6.906;2022-11-25T08:41:25;25.05;;;12.07;;
52210;SDS011;38179;52.756;6.906;2022-11-25T08:43:53;17.02;;;11.45;;
52210;SDS011;38179;52.756;6.906;2022-11-25T08:46:21;14.77;;;11.73;;
52210;SDS011;38179;52.756;6.906;2022-11-25T08:48:48;15.33;;;11.67;;
52210;SDS011;38179;52.756;6.906;2022-11-25T08:51:15;19.02;;;12.10;;
52210;SDS011;38179;52.756;6.906;2022-11-25T08:53:49;15.38;;;11.25;;
52210;SDS011;38179;52.756;6.906;2022-11-25T08:56:15;17.58;;;11.60;;
52210;SDS011;38179;52.756;6.906;2022-11-25T08:58:42;17.77;;;12.15;;
52210;SDS011;38179;52.756;6.906;2022-11-25T09:01:08;21.67;;;12.10;;
52210;SDS011;38179;52.756;6.906;2022-11-25T09:03:37;18.85;;;12.27;;
52210;SDS011;38179;52.756;6.906;2022-11-25T09:06:05;16.95;;;12.55;;
52210;SDS011;38179;52.756;6.906;2022-11-25T09:08:32;21.75;;;12.80;;
52210;SDS011;38179;52.756;6.906;2022-11-25T09:10:59;18.95;;;13.10;;
52210;SDS011;38179;52.756;6.906;2022-11-25T09:13:24;17.88;;;13.30;;
52210;SDS011;38179;52.756;6.906;2022-11-25T09:15:51;21.08;;;13.05;;
52210;SDS011;38179;52.756;6.906;2022-11-25T09:18:17;22.27;;;13.40;;
52210;SDS011;38179;52.756;6.906;2022-11-25T09:20:44;19.13;;;13.50;;
52210;SDS011;38179;52.756;6.906;2022-11-25T09:23:11;17.88;;;12.82;;
52210;SDS011;38179;52.756;6.906;2022-11-25T09:25:38;16.85;;;12.40;;
52210;SDS011;38179;52.756;6.906;2022-11-25T09:28:04;16.95;;;13.38;;
52210;SDS011;38179;52.756;6.906;2022-11-25T09:30:30;15.15;;;12.88;;
52210;SDS011;38179;52.756;6.906;2022-11-25T09:32:56;21.42;;;13.52;;
52210;SDS011;38179;52.756;6.906;2022-11-25T09:35:23;17.05;;;13.75;;
52210;SDS011;38179;52.756;6.906;2022-11-25T09:37:49;16.10;;;12.88;;
52210;SDS011;38179;52.756;6.906;2022-11-25T09:40:19;16.98;;;12.70;;
52210;SDS011;38179;52.756;6.906;2022-11-25T09:45:53;18.73;;;13.00;;
52210;SDS011;38179;52.756;6.906;2022-11-25T09:51:16;17.38;;;13.07;;
52210;SDS011;38179;52.756;6.906;2022-11-25T09:53:51;15.07;;;13.15;;
52210;SDS011;38179;52.756;6.906;2022-11-25T09:56:33;20.55;;;12.20;;
52210;SDS011;38179;52.756;6.906;2022-11-25T09:59:17;15.27;;;12.52;;
52210;SDS011;38179;52.756;6.906;2022-11-25T10:01:51;21.33;;;12.88;;
52210;SDS011;38179;52.756;6.906;2022-11-25T10:04:30;18.25;;;13.25;;
52210;SDS011;38179;52.756;6.906;2022-11-25T10:07:02;17.63;;;12.07;;
52210;SDS011;38179;52.756;6.906;2022-11-25T10:09:30;16.92;;;12.60;;
52210;SDS011;38179;52.756;6.906;2022-11-25T10:12:05;21.88;;;13.50;;
52210;SDS011;38179;52.756;6.906;2022-11-25T10:14:43;15.38;;;12.02;;
52210;SDS011;38179;52.756;6.906;2022-11-25T10:17:14;16.02;;;13.00;;
52210;SDS011;38179;52.756;6.906;2022-11-25T10:22:41;15.88;;;12.30;;
52210;SDS011;38179;52.756;6.906;2022-11-25T10:25:14;14.50;;;13.00;;
52210;SDS011;38179;52.756;6.906;2022-11-25T10:27:46;18.00;;;11.65;;
52210;SDS011;38179;52.756;6.906;2022-11-25T10:30:38;17.90;;;11.52;;
52210;SDS011;38179;52.756;6.906;2022-11-25T10:35:50;12.85;;;11.55;;
52210;SDS011;38179;52.756;6.906;2022-11-25T10:38:27;18.95;;;12.02;;
52210;SDS011;38179;52.756;6.906;2022-11-25T10:41:02;14.73;;;11.90;;
52210;SDS011;38179;52.756;6.906;2022-11-25T10:43:30;17.67;;;11.83;;
52210;SDS011;38179;52.756;6.906;2022-11-25T10:45:58;17.65;;;11.77;;
52210;SDS011;38179;52.756;6.906;2022-11-25T10:54:10;14.35;;;11.27;;
52210;SDS011;38179;52.756;6.906;2022-11-25T10:59:25;14.65;;;11.80;;
52210;SDS011;38179;52.756;6.906;2022-11-25T11:02:38;14.18;;;11.20;;
52210;SDS011;38179;52.756;6.906;2022-11-25T11:07:36;16.05;;;11.23;;
52210;SDS011;38179;52.756;6.906;2022-11-25T11:13:40;15.13;;;11.40;;
52210;SDS011;38179;52.756;6.906;2022-11-25T11:15:54;16.15;;;10.65;;
52210;SDS011;38179;52.756;6.906;2022-11-25T11:18:25;17.38;;;11.48;;
52210;SDS011;38179;52.756;6.906;2022-11-25T11:21:09;14.85;;;11.40;;
52210;SDS011;38179;52.756;6.906;2022-11-25T11:23:54;14.25;;;12.05;;
52210;SDS011;38179;52.756;6.906;2022-11-25T11:26:29;12.48;;;11.10;;
52210;SDS011;38179;52.756;6.906;2022-11-25T11:31:29;17.30;;;11.93;;
52210;SDS011;38179;52.756;6.906;2022-11-25T11:50:32;16.10;;;11.77;;
52210;SDS011;38179;52.756;6.906;2022-11-25T11:53:20;15.23;;;11.80;;
52210;SDS011;38179;52.756;6.906;2022-11-25T12:02:02;13.32;;;11.02;;
52210;SDS011;38179;52.756;6.906;2022-11-25T12:07:45;13.40;;;11.02;;
52210;SDS011;38179;52.756;6.906;2022-11-25T12:16:04;15.88;;;11.35;;
52210;SDS011;38179;52.756;6.906;2022-11-25T12:27:11;16.85;;;11.20;;
52210;SDS011;38179;52.756;6.906;2022-11-25T12:29:40;16.63;;;10.85;;
52210;SDS011;38179;52.756;6.906;2022-11-25T12:34:58;13.20;;;10.80;;
52210;SDS011;38179;52.756;6.906;2022-11-25T12:37:38;17.80;;;10.88;;
52210;SDS011;38179;52.756;6.906;2022-11-25T12:40:17;14.32;;;10.75;;
52210;SDS011;38179;52.756;6.906;2022-11-25T12:42:51;13.55;;;10.40;;
52210;SDS011;38179;52.756;6.906;2022-11-25T12:45:27;16.38;;;10.52;;
52210;SDS011;38179;52.756;6.906;2022-11-25T12:47:53;12.63;;;10.52;;
52210;SDS011;38179;52.756;6.906;2022-11-25T12:50:41;17.73;;;10.70;;
52210;SDS011;38179;52.756;6.906;2022-11-25T12:53:08;18.20;;;11.63;;
52210;SDS011;38179;52.756;6.906;2022-11-25T12:55:39;14.27;;;11.68;;
52210;SDS011;38179;52.756;6.906;2022-11-25T13:17:18;18.40;;;10.80;;
52210;SDS011;38179;52.756;6.906;2022-11-25T13:19:47;14.18;;;11.10;;
52210;SDS011;38179;52.756;6.906;2022-11-25T13:24:45;16.58;;;11.18;;
52210;SDS011;38179;52.756;6.906;2022-11-25T13:35:48;16.08;;;11.02;;
52210;SDS011;38179;52.756;6.906;2022-11-25T13:40:57;16.42;;;11.95;;
52210;SDS011;38179;52.756;6.906;2022-11-25T13:43:57;16.30;;;11.88;;
52210;SDS011;38179;52.756;6.906;2022-11-25T13:46:37;18.20;;;10.90;;
52210;SDS011;38179;52.756;6.906;2022-11-25T13:49:59;19.63;;;11.35;;
52210;SDS011;38179;52.756;6.906;2022-11-25T13:54:43;17.70;;;11.00;;
52210;SDS011;38179;52.756;6.906;2022-11-25T13:57:22;17.27;;;12.18;;
52210;SDS011;38179;52.756;6.906;2022-11-25T13:59:54;16.35;;;11.55;;
52210;SDS011;38179;52.756;6.906;2022-11-25T14:08:06;22.05;;;12.07;;
52210;SDS011;38179;52.756;6.906;2022-11-25T14:21:25;13.93;;;10.88;;
52210;SDS011;38179;52.756;6.906;2022-11-25T14:27:13;18.70;;;11.85;;
52210;SDS011;38179;52.756;6.906;2022-11-25T14:32:35;18.55;;;11.27;;
52210;SDS011;38179;52.756;6.906;2022-11-25T14:37:49;19.58;;;11.85;;
52210;SDS011;38179;52.756;6.906;2022-11-25T14:40:40;13.77;;;11.10;;
52210;SDS011;38179;52.756;6.906;2022-11-25T14:43:11;17.40;;;11.85;;
52210;SDS011;38179;52.756;6.906;2022-11-25T14:45:41;18.17;;;11.68;;
52210;SDS011;38179;52.756;6.906;2022-11-25T14:50:59;18.92;;;11.60;;
52210;SDS011;38179;52.756;6.906;2022-11-25T14:53:35;18.63;;;12.00;;
52210;SDS011;38179;52.756;6.906;2022-11-25T14:56:10;15.90;;;11.25;;
52210;SDS011;38179;52.756;6.906;2022-11-25T14:58:46;15.65;;;11.70;;
52210;SDS011;38179;52.756;6.906;2022-11-25T15:01:20;19.45;;;11.52;;
52210;SDS011;38179;52.756;6.906;2022-11-25T15:03:51;19.38;;;12.55;;
52210;SDS011;38179;52.756;6.906;2022-11-25T15:06:52;16.15;;;11.30;;
52210;SDS011;38179;52.756;6.906;2022-11-25T15:09:25;17.40;;;10.88;;
52210;SDS011;38179;52.756;6.906;2022-11-25T15:12:01;18.58;;;12.35;;
52210;SDS011;38179;52.756;6.906;2022-11-25T15:14:39;22.25;;;11.98;;
52210;SDS011;38179;52.756;6.906;2022-11-25T15:17:08;17.25;;;11.80;;
52210;SDS011;38179;52.756;6.906;2022-11-25T15:19:55;17.42;;;11.90;;
52210;SDS011;38179;52.756;6.906;2022-11-25T15:22:26;16.65;;;11.43;;
52210;SDS011;38179;52.756;6.906;2022-11-25T15:24:53;15.30;;;11.02;;
52210;SDS011;38179;52.756;6.906;2022-11-25T15:27:31;16.55;;;11.05;;
52210;SDS011;38179;52.756;6.906;2022-11-25T15:29:57;20.10;;;12.18;;
52210;SDS011;38179;52.756;6.906;2022-11-25T15:32:24;20.50;;;12.68;;
52210;SDS011;38179;52.756;6.906;2022-11-25T15:34:52;20.05;;;12.20;;
52210;SDS011;38179;52.756;6.906;2022-11-25T15:37:20;16.38;;;11.88;;
52210;SDS011;38179;52.756;6.906;2022-11-25T15:39:48;17.75;;;12.02;;
52210;SDS011;38179;52.756;6.906;2022-11-25T15:42:35;17.10;;;12.07;;
52210;SDS011;38179;52.756;6.906;2022-11-25T15:45:02;14.00;;;12.27;;
52210;SDS011;38179;52.756;6.906;2022-11-25T15:47:34;16.98;;;12.52;;
52210;SDS011;38179;52.756;6.906;2022-11-25T15:52:44;21.98;;;12.30;;
52210;SDS011;38179;52.756;6.906;2022-11-25T15:57:51;15.73;;;12.68;;
52210;SDS011;38179;52.756;6.906;2022-11-25T16:00:19;17.80;;;12.25;;
52210;SDS011;38179;52.756;6.906;2022-11-25T16:02:49;16.40;;;11.90;;
52210;SDS011;38179;52.756;6.906;2022-11-25T16:19:05;25.85;;;13.35;;
52210;SDS011;38179;52.756;6.906;2022-11-25T16:24:15;20.88;;;12.98;;
52210;SDS011;38179;52.756;6.906;2022-11-25T16:26:57;22.60;;;12.98;;
52210;SDS011;38179;52.756;6.906;2022-11-25T16:29:32;19.92;;;13.63;;
52210;SDS011;38179;52.756;6.906;2022-11-25T16:31:59;21.83;;;12.75;;
52210;SDS011;38179;52.756;6.906;2022-11-25T16:34:34;15.38;;;11.10;;
52210;SDS011;38179;52.756;6.906;2022-11-25T16:37:00;13.02;;;10.32;;
52210;SDS011;38179;52.756;6.906;2022-11-25T16:39:25;12.65;;;10.10;;
52210;SDS011;38179;52.756;6.906;2022-11-25T16:41:55;13.15;;;10.65;;
52210;SDS011;38179;52.756;6.906;2022-11-25T16:44:25;14.35;;;10.45;;
52210;SDS011;38179;52.756;6.906;2022-11-25T16:46:52;18.83;;;11.30;;
52210;SDS011;38179;52.756;6.906;2022-11-25T16:49:19;14.75;;;10.95;;
52210;SDS011;38179;52.756;6.906;2022-11-25T16:51:46;20.52;;;11.70;;
52210;SDS011;38179;52.756;6.906;2022-11-25T16:54:15;16.38;;;11.80;;
52210;SDS011;38179;52.756;6.906;2022-11-25T16:56:45;20.15;;;12.20;;
52210;SDS011;38179;52.756;6.906;2022-11-25T16:59:16;16.80;;;11.18;;
52210;SDS011;38179;52.756;6.906;2022-11-25T17:01:50;17.02;;;13.02;;
52210;SDS011;38179;52.756;6.906;2022-11-25T17:04:16;21.95;;;13.63;;
52210;SDS011;38179;52.756;6.906;2022-11-25T17:06:42;21.02;;;14.02;;
52210;SDS011;38179;52.756;6.906;2022-11-25T17:09:09;23.75;;;14.30;;
52210;SDS011;38179;52.756;6.906;2022-11-25T17:11:37;23.98;;;14.45;;
52210;SDS011;38179;52.756;6.906;2022-11-25T17:14:10;19.70;;;14.10;;
52210;SDS011;38179;52.756;6.906;2022-11-25T17:16:42;21.02;;;13.82;;
52210;SDS011;38179;52.756;6.906;2022-11-25T17:19:09;25.42;;;14.73;;
52210;SDS011;38179;52.756;6.906;2022-11-25T17:21:39;20.42;;;13.80;;
52210;SDS011;38179;52.756;6.906;2022-11-25T17:24:08;21.33;;;13.82;;
52210;SDS011;38179;52.756;6.906;2022-11-25T17:26:44;22.48;;;13.35;;
52210;SDS011;38179;52.756;6.906;2022-11-25T17:29:17;20.25;;;14.30;;
52210;SDS011;38179;52.756;6.906;2022-11-25T17:31:46;20.60;;;14.52;;